sensor_id;sensor_type;location;lat;lon;timestamp;temperature;humidity
49829;DHT22;35723;51.194;5.112;2023-10-31T00:00:44;13.50;99.90
49829;DHT22;35723;51.194;5.112;2023-10-31T00:03:10;13.50;99.90
49829;DHT22;35723;51.194;5.112;2023-10-31T00:05:36;13.50;99.90
49829;DHT22;35723;51.194;5.112;2023-10-31T00:08:01;13.50;99.90
49829;DHT22;35723;51.194;5.112;2023-10-31T00:10:27;13.60;99.90
49829;DHT22;35723;51.194;5.112;2023-10-31T00:12:53;13.60;99.90
49829;DHT22;35723;51.194;5.112;2023-10-31T00:15:18;13.60;99.90
49829;DHT22;35723;51.194;5.112;2023-10-31T00:17:44;13.50;99.90
49829;DHT22;35723;51.194;5.112;2023-10-31T00:20:10;13.50;99.90
49829;DHT22;35723;51.194;5.112;2023-10-31T00:22:35;13.60;99.90
49829;DHT22;35723;51.194;5.112;2023-10-31T00:25:01;13.50;99.90
49829;DHT22;35723;51.194;5.112;2023-10-31T00:27:27;13.40;99.90
49829;DHT22;35723;51.194;5.112;2023-10-31T00:29:52;13.40;99.90
49829;DHT22;35723;51.194;5.112;2023-10-31T00:32:18;13.30;99.90
49829;DHT22;35723;51.194;5.112;2023-10-31T00:34:44;13.40;99.90
49829;DHT22;35723;51.194;5.112;2023-10-31T00:37:09;13.40;99.90
49829;DHT22;35723;51.194;5.112;2023-10-31T00:39:35;13.40;99.90
49829;DHT22;35723;51.194;5.112;2023-10-31T00:42:00;13.50;99.90
49829;DHT22;35723;51.194;5.112;2023-10-31T00:44:26;13.40;99.90
49829;DHT22;35723;51.194;5.112;2023-10-31T00:46:52;13.30;99.90
49829;DHT22;35723;51.194;5.112;2023-10-31T00:49:17;13.30;99.90
49829;DHT22;35723;51.194;5.112;2023-10-31T00:51:43;13.20;99.90
49829;DHT22;35723;51.194;5.112;2023-10-31T00:54:08;13.20;99.90
49829;DHT22;35723;51.194;5.112;2023-10-31T00:56:34;13.30;99.90
49829;DHT22;35723;51.194;5.112;2023-10-31T00:59:00;13.30;99.90
49829;DHT22;35723;51.194;5.112;2023-10-31T01:01:26;13.40;99.90
49829;DHT22;35723;51.194;5.112;2023-10-31T01:03:51;13.40;99.90
49829;DHT22;35723;51.194;5.112;2023-10-31T01:06:17;13.50;99.90
49829;DHT22;35723;51.194;5.112;2023-10-31T01:08:43;13.50;99.90
49829;DHT22;35723;51.194;5.112;2023-10-31T01:11:08;13.50;99.90
49829;DHT22;35723;51.194;5.112;2023-10-31T01:13:34;13.40;99.90
49829;DHT22;35723;51.194;5.112;2023-10-31T01:16:00;13.40;99.90
49829;DHT22;35723;51.194;5.112;2023-10-31T01:18:25;13.20;99.90
49829;DHT22;35723;51.194;5.112;2023-10-31T01:20:51;13.10;99.90
49829;DHT22;35723;51.194;5.112;2023-10-31T01:23:17;13.20;99.90
49829;DHT22;35723;51.194;5.112;2023-10-31T01:25:42;13.20;99.90
49829;DHT22;35723;51.194;5.112;2023-10-31T01:28:08;13.20;99.90
49829;DHT22;35723;51.194;5.112;2023-10-31T01:30:34;13.20;99.90
49829;DHT22;35723;51.194;5.112;2023-10-31T01:32:59;13.20;99.90
49829;DHT22;35723;51.194;5.112;2023-10-31T01:35:25;13.20;99.90
49829;DHT22;35723;51.194;5.112;2023-10-31T01:37:51;13.10;99.90
49829;DHT22;35723;51.194;5.112;2023-10-31T01:40:17;13.10;99.90
49829;DHT22;35723;51.194;5.112;2023-10-31T01:42:42;13.20;99.90
49829;DHT22;35723;51.194;5.112;2023-10-31T01:45:08;13.00;99.90
49829;DHT22;35723;51.194;5.112;2023-10-31T01:47:34;12.90;99.90
49829;DHT22;35723;51.194;5.112;2023-10-31T01:50:00;12.90;99.90
49829;DHT22;35723;51.194;5.112;2023-10-31T01:52:26;12.80;99.90
49829;DHT22;35723;51.194;5.112;2023-10-31T01:54:53;12.70;99.90
49829;DHT22;35723;51.194;5.112;2023-10-31T01:57:21;12.90;99.90
49829;DHT22;35723;51.194;5.112;2023-10-31T01:59:47;13.00;99.90
49829;DHT22;35723;51.194;5.112;2023-10-31T02:02:14;13.00;99.90
49829;DHT22;35723;51.194;5.112;2023-10-31T02:04:40;13.10;99.90
49829;DHT22;35723;51.194;5.112;2023-10-31T02:07:06;13.20;99.90
49829;DHT22;35723;51.194;5.112;2023-10-31T02:09:32;13.20;99.90
49829;DHT22;35723;51.194;5.112;2023-10-31T02:11:58;13.20;99.90
49829;DHT22;35723;51.194;5.112;2023-10-31T02:14:24;13.20;99.90
49829;DHT22;35723;51.194;5.112;2023-10-31T02:16:50;13.30;99.90
49829;DHT22;35723;51.194;5.112;2023-10-31T02:19:20;13.20;99.90
49829;DHT22;35723;51.194;5.112;2023-10-31T02:21:46;13.30;99.90
49829;DHT22;35723;51.194;5.112;2023-10-31T02:24:11;13.30;99.90
49829;DHT22;35723;51.194;5.112;2023-10-31T02:26:37;13.20;99.90
49829;DHT22;35723;51.194;5.112;2023-10-31T02:29:03;13.30;99.90
49829;DHT22;35723;51.194;5.112;2023-10-31T02:31:29;13.30;99.90
49829;DHT22;35723;51.194;5.112;2023-10-31T02:33:55;13.20;99.90
49829;DHT22;35723;51.194;5.112;2023-10-31T02:36:20;13.30;99.90
49829;DHT22;35723;51.194;5.112;2023-10-31T02:38:46;13.30;99.90
49829;DHT22;35723;51.194;5.112;2023-10-31T02:41:12;13.30;99.90
49829;DHT22;35723;51.194;5.112;2023-10-31T02:43:41;13.30;99.90
49829;DHT22;35723;51.194;5.112;2023-10-31T02:46:07;13.10;99.90
49829;DHT22;35723;51.194;5.112;2023-10-31T02:48:33;13.20;99.90
49829;DHT22;35723;51.194;5.112;2023-10-31T02:51:05;13.20;99.90
49829;DHT22;35723;51.194;5.112;2023-10-31T02:53:31;13.10;99.90
49829;DHT22;35723;51.194;5.112;2023-10-31T02:55:57;12.90;99.90
49829;DHT22;35723;51.194;5.112;2023-10-31T02:58:22;12.90;99.90
49829;DHT22;35723;51.194;5.112;2023-10-31T03:00:48;13.00;99.90
49829;DHT22;35723;51.194;5.112;2023-10-31T03:03:13;12.90;99.90
49829;DHT22;35723;51.194;5.112;2023-10-31T03:05:39;13.10;99.90
49829;DHT22;35723;51.194;5.112;2023-10-31T03:08:05;13.00;99.90
49829;DHT22;35723;51.194;5.112;2023-10-31T03:10:32;12.90;99.90
49829;DHT22;35723;51.194;5.112;2023-10-31T03:12:58;12.90;99.90
49829;DHT22;35723;51.194;5.112;2023-10-31T03:15:24;12.90;99.90
49829;DHT22;35723;51.194;5.112;2023-10-31T03:17:50;12.90;99.90
49829;DHT22;35723;51.194;5.112;2023-10-31T03:20:16;12.90;99.90
49829;DHT22;35723;51.194;5.112;2023-10-31T03:22:41;12.90;99.90
49829;DHT22;35723;51.194;5.112;2023-10-31T03:25:07;12.90;99.90
49829;DHT22;35723;51.194;5.112;2023-10-31T03:27:33;13.00;99.90
49829;DHT22;35723;51.194;5.112;2023-10-31T03:29:58;13.00;99.90
49829;DHT22;35723;51.194;5.112;2023-10-31T03:32:24;13.00;99.90
49829;DHT22;35723;51.194;5.112;2023-10-31T03:34:50;13.10;99.90
49829;DHT22;35723;51.194;5.112;2023-10-31T03:37:15;13.10;99.90
49829;DHT22;35723;51.194;5.112;2023-10-31T03:39:41;13.10;99.90
49829;DHT22;35723;51.194;5.112;2023-10-31T03:42:06;13.10;99.90
49829;DHT22;35723;51.194;5.112;2023-10-31T03:44:32;13.20;99.90
49829;DHT22;35723;51.194;5.112;2023-10-31T03:46:58;13.30;99.90
49829;DHT22;35723;51.194;5.112;2023-10-31T03:49:23;13.20;99.90
49829;DHT22;35723;51.194;5.112;2023-10-31T03:51:49;13.30;99.90
49829;DHT22;35723;51.194;5.112;2023-10-31T03:54:15;13.20;99.90
49829;DHT22;35723;51.194;5.112;2023-10-31T03:56:41;13.00;99.90
49829;DHT22;35723;51.194;5.112;2023-10-31T03:59:07;13.10;99.90
49829;DHT22;35723;51.194;5.112;2023-10-31T04:01:33;13.20;99.90
49829;DHT22;35723;51.194;5.112;2023-10-31T04:03:58;12.90;99.90
49829;DHT22;35723;51.194;5.112;2023-10-31T04:06:24;13.00;99.90
49829;DHT22;35723;51.194;5.112;2023-10-31T04:08:50;13.10;99.90
49829;DHT22;35723;51.194;5.112;2023-10-31T04:11:15;13.10;99.90
49829;DHT22;35723;51.194;5.112;2023-10-31T04:13:41;12.90;99.90
49829;DHT22;35723;51.194;5.112;2023-10-31T04:16:07;12.90;99.90
49829;DHT22;35723;51.194;5.112;2023-10-31T04:18:33;12.90;99.90
49829;DHT22;35723;51.194;5.112;2023-10-31T04:20:58;12.90;99.90
49829;DHT22;35723;51.194;5.112;2023-10-31T04:23:24;12.70;99.90
49829;DHT22;35723;51.194;5.112;2023-10-31T04:25:50;12.80;99.90
49829;DHT22;35723;51.194;5.112;2023-10-31T04:28:17;13.00;99.90
49829;DHT22;35723;51.194;5.112;2023-10-31T04:30:43;13.00;99.90
49829;DHT22;35723;51.194;5.112;2023-10-31T04:33:09;12.90;99.90
49829;DHT22;35723;51.194;5.112;2023-10-31T04:35:34;12.90;99.90
49829;DHT22;35723;51.194;5.112;2023-10-31T04:38:00;13.00;99.90
49829;DHT22;35723;51.194;5.112;2023-10-31T04:40:25;12.90;99.90
49829;DHT22;35723;51.194;5.112;2023-10-31T04:42:51;12.70;99.90
49829;DHT22;35723;51.194;5.112;2023-10-31T04:45:17;12.70;99.90
49829;DHT22;35723;51.194;5.112;2023-10-31T04:47:42;12.50;99.90
49829;DHT22;35723;51.194;5.112;2023-10-31T04:50:08;12.50;99.90
49829;DHT22;35723;51.194;5.112;2023-10-31T04:52:34;12.60;99.90
49829;DHT22;35723;51.194;5.112;2023-10-31T04:55:00;12.60;99.90
49829;DHT22;35723;51.194;5.112;2023-10-31T04:57:25;12.60;99.90
49829;DHT22;35723;51.194;5.112;2023-10-31T04:59:51;12.70;99.90
49829;DHT22;35723;51.194;5.112;2023-10-31T05:02:21;12.70;99.90
49829;DHT22;35723;51.194;5.112;2023-10-31T05:04:48;12.60;99.90
49829;DHT22;35723;51.194;5.112;2023-10-31T05:07:16;12.60;99.90
49829;DHT22;35723;51.194;5.112;2023-10-31T05:09:42;12.60;99.90
49829;DHT22;35723;51.194;5.112;2023-10-31T05:12:08;12.70;99.90
49829;DHT22;35723;51.194;5.112;2023-10-31T05:14:33;12.70;99.90
49829;DHT22;35723;51.194;5.112;2023-10-31T05:16:59;12.70;99.90
49829;DHT22;35723;51.194;5.112;2023-10-31T05:19:24;12.90;99.90
49829;DHT22;35723;51.194;5.112;2023-10-31T05:21:51;12.80;99.90
49829;DHT22;35723;51.194;5.112;2023-10-31T05:24:17;12.80;99.90
49829;DHT22;35723;51.194;5.112;2023-10-31T05:26:43;12.90;99.90
49829;DHT22;35723;51.194;5.112;2023-10-31T05:29:09;12.80;99.90
49829;DHT22;35723;51.194;5.112;2023-10-31T05:31:34;12.90;99.90
49829;DHT22;35723;51.194;5.112;2023-10-31T05:34:00;13.00;99.90
49829;DHT22;35723;51.194;5.112;2023-10-31T05:36:26;13.10;99.90
49829;DHT22;35723;51.194;5.112;2023-10-31T05:38:53;13.00;99.90
49829;DHT22;35723;51.194;5.112;2023-10-31T05:41:19;13.00;99.90
49829;DHT22;35723;51.194;5.112;2023-10-31T05:43:45;13.00;99.90
49829;DHT22;35723;51.194;5.112;2023-10-31T05:46:10;13.10;99.90
49829;DHT22;35723;51.194;5.112;2023-10-31T05:48:39;13.10;99.90
49829;DHT22;35723;51.194;5.112;2023-10-31T05:51:10;13.00;99.90
49829;DHT22;35723;51.194;5.112;2023-10-31T05:53:36;13.00;99.90
49829;DHT22;35723;51.194;5.112;2023-10-31T05:56:02;13.00;99.90
49829;DHT22;35723;51.194;5.112;2023-10-31T05:58:28;13.10;99.90
49829;DHT22;35723;51.194;5.112;2023-10-31T06:00:54;12.90;99.90
49829;DHT22;35723;51.194;5.112;2023-10-31T06:03:19;13.00;99.90
49829;DHT22;35723;51.194;5.112;2023-10-31T06:05:45;13.00;99.90
49829;DHT22;35723;51.194;5.112;2023-10-31T06:08:11;12.70;99.90
49829;DHT22;35723;51.194;5.112;2023-10-31T06:10:37;12.70;99.90
49829;DHT22;35723;51.194;5.112;2023-10-31T06:13:02;12.70;99.90
49829;DHT22;35723;51.194;5.112;2023-10-31T06:15:28;12.70;99.90
49829;DHT22;35723;51.194;5.112;2023-10-31T06:17:53;12.80;99.90
49829;DHT22;35723;51.194;5.112;2023-10-31T06:20:19;12.80;99.90
49829;DHT22;35723;51.194;5.112;2023-10-31T06:22:45;12.60;99.90
49829;DHT22;35723;51.194;5.112;2023-10-31T06:25:10;12.70;99.90
49829;DHT22;35723;51.194;5.112;2023-10-31T06:27:36;12.80;99.90
49829;DHT22;35723;51.194;5.112;2023-10-31T06:30:02;12.90;99.90
49829;DHT22;35723;51.194;5.112;2023-10-31T06:32:28;12.80;99.90
49829;DHT22;35723;51.194;5.112;2023-10-31T06:34:53;12.80;99.90
49829;DHT22;35723;51.194;5.112;2023-10-31T06:37:19;12.90;99.90
49829;DHT22;35723;51.194;5.112;2023-10-31T06:39:44;12.90;99.90
49829;DHT22;35723;51.194;5.112;2023-10-31T06:42:10;12.90;99.90
49829;DHT22;35723;51.194;5.112;2023-10-31T06:44:36;12.80;99.90
49829;DHT22;35723;51.194;5.112;2023-10-31T06:47:02;12.80;99.90
49829;DHT22;35723;51.194;5.112;2023-10-31T06:49:27;12.80;99.90
49829;DHT22;35723;51.194;5.112;2023-10-31T06:51:53;12.90;99.90
49829;DHT22;35723;51.194;5.112;2023-10-31T06:54:18;12.80;99.90
49829;DHT22;35723;51.194;5.112;2023-10-31T06:56:45;12.80;99.90
49829;DHT22;35723;51.194;5.112;2023-10-31T06:59:10;12.80;99.90
49829;DHT22;35723;51.194;5.112;2023-10-31T07:01:36;12.80;99.90
49829;DHT22;35723;51.194;5.112;2023-10-31T07:04:03;12.80;99.90
49829;DHT22;35723;51.194;5.112;2023-10-31T07:06:29;12.90;99.90
49829;DHT22;35723;51.194;5.112;2023-10-31T07:08:54;12.90;99.90
49829;DHT22;35723;51.194;5.112;2023-10-31T07:11:20;12.90;99.90
49829;DHT22;35723;51.194;5.112;2023-10-31T07:13:46;12.90;99.90
49829;DHT22;35723;51.194;5.112;2023-10-31T07:16:11;12.80;99.90
49829;DHT22;35723;51.194;5.112;2023-10-31T07:18:37;12.80;99.90
49829;DHT22;35723;51.194;5.112;2023-10-31T07:21:03;12.60;99.90
49829;DHT22;35723;51.194;5.112;2023-10-31T07:23:29;12.60;99.90
49829;DHT22;35723;51.194;5.112;2023-10-31T07:25:55;12.70;99.90
49829;DHT22;35723;51.194;5.112;2023-10-31T07:28:20;12.70;99.90
49829;DHT22;35723;51.194;5.112;2023-10-31T07:30:46;12.80;99.90
49829;DHT22;35723;51.194;5.112;2023-10-31T07:33:11;12.80;99.90
49829;DHT22;35723;51.194;5.112;2023-10-31T07:35:37;12.90;99.90
49829;DHT22;35723;51.194;5.112;2023-10-31T07:38:03;12.90;99.90
49829;DHT22;35723;51.194;5.112;2023-10-31T07:40:28;13.00;99.90
49829;DHT22;35723;51.194;5.112;2023-10-31T07:42:54;13.00;99.90
49829;DHT22;35723;51.194;5.112;2023-10-31T07:45:20;13.00;99.90
49829;DHT22;35723;51.194;5.112;2023-10-31T07:47:45;13.00;99.90
49829;DHT22;35723;51.194;5.112;2023-10-31T07:50:11;12.90;99.90
49829;DHT22;35723;51.194;5.112;2023-10-31T07:52:38;13.00;99.90
49829;DHT22;35723;51.194;5.112;2023-10-31T07:55:04;13.00;99.90
49829;DHT22;35723;51.194;5.112;2023-10-31T07:57:30;12.90;99.90
49829;DHT22;35723;51.194;5.112;2023-10-31T07:59:55;12.90;99.90
49829;DHT22;35723;51.194;5.112;2023-10-31T08:02:21;12.90;99.90
49829;DHT22;35723;51.194;5.112;2023-10-31T08:04:47;12.90;99.90
49829;DHT22;35723;51.194;5.112;2023-10-31T08:07:12;13.00;99.90
49829;DHT22;35723;51.194;5.112;2023-10-31T08:09:38;12.90;99.90
49829;DHT22;35723;51.194;5.112;2023-10-31T08:12:03;12.90;99.90
49829;DHT22;35723;51.194;5.112;2023-10-31T08:14:29;12.90;99.90
49829;DHT22;35723;51.194;5.112;2023-10-31T08:16:55;12.80;99.90
49829;DHT22;35723;51.194;5.112;2023-10-31T08:19:20;12.80;99.90
49829;DHT22;35723;51.194;5.112;2023-10-31T08:21:46;12.80;99.90
49829;DHT22;35723;51.194;5.112;2023-10-31T08:24:12;12.70;99.90
49829;DHT22;35723;51.194;5.112;2023-10-31T08:26:38;12.80;99.90
49829;DHT22;35723;51.194;5.112;2023-10-31T08:29:04;12.80;99.90
49829;DHT22;35723;51.194;5.112;2023-10-31T08:31:30;12.90;99.90
49829;DHT22;35723;51.194;5.112;2023-10-31T08:33:56;13.10;99.90
49829;DHT22;35723;51.194;5.112;2023-10-31T08:36:21;13.10;99.90
49829;DHT22;35723;51.194;5.112;2023-10-31T08:38:47;13.20;99.90
49829;DHT22;35723;51.194;5.112;2023-10-31T08:41:14;13.10;99.90
49829;DHT22;35723;51.194;5.112;2023-10-31T08:43:45;12.90;99.90
49829;DHT22;35723;51.194;5.112;2023-10-31T08:46:11;12.80;99.90
49829;DHT22;35723;51.194;5.112;2023-10-31T08:48:37;12.80;99.90
49829;DHT22;35723;51.194;5.112;2023-10-31T08:51:04;12.80;99.90
49829;DHT22;35723;51.194;5.112;2023-10-31T08:53:29;12.80;99.90
49829;DHT22;35723;51.194;5.112;2023-10-31T08:55:55;12.80;99.90
49829;DHT22;35723;51.194;5.112;2023-10-31T08:58:22;12.90;99.90
49829;DHT22;35723;51.194;5.112;2023-10-31T09:00:47;13.00;99.90
49829;DHT22;35723;51.194;5.112;2023-10-31T09:03:13;12.90;99.90
49829;DHT22;35723;51.194;5.112;2023-10-31T09:05:40;12.90;99.90
49829;DHT22;35723;51.194;5.112;2023-10-31T09:08:05;12.70;99.90
49829;DHT22;35723;51.194;5.112;2023-10-31T09:10:33;12.60;99.90
49829;DHT22;35723;51.194;5.112;2023-10-31T09:12:59;12.70;99.90
49829;DHT22;35723;51.194;5.112;2023-10-31T09:15:24;12.80;99.90
49829;DHT22;35723;51.194;5.112;2023-10-31T09:17:50;12.70;99.90
49829;DHT22;35723;51.194;5.112;2023-10-31T09:20:15;12.80;99.90
49829;DHT22;35723;51.194;5.112;2023-10-31T09:22:41;12.90;99.90
49829;DHT22;35723;51.194;5.112;2023-10-31T09:25:07;13.00;99.90
49829;DHT22;35723;51.194;5.112;2023-10-31T09:27:33;13.10;99.90
49829;DHT22;35723;51.194;5.112;2023-10-31T09:29:58;13.10;99.90
49829;DHT22;35723;51.194;5.112;2023-10-31T09:32:24;13.10;99.90
49829;DHT22;35723;51.194;5.112;2023-10-31T09:34:50;13.20;99.90
49829;DHT22;35723;51.194;5.112;2023-10-31T09:37:15;13.20;99.90
49829;DHT22;35723;51.194;5.112;2023-10-31T09:39:41;13.20;99.90
49829;DHT22;35723;51.194;5.112;2023-10-31T09:42:07;13.30;99.90
49829;DHT22;35723;51.194;5.112;2023-10-31T09:44:34;13.40;99.90
49829;DHT22;35723;51.194;5.112;2023-10-31T09:47:01;13.50;99.90
49829;DHT22;35723;51.194;5.112;2023-10-31T09:49:27;13.60;99.90
49829;DHT22;35723;51.194;5.112;2023-10-31T09:51:53;13.60;99.90
49829;DHT22;35723;51.194;5.112;2023-10-31T09:54:19;13.60;99.90
49829;DHT22;35723;51.194;5.112;2023-10-31T09:56:45;13.70;99.90
49829;DHT22;35723;51.194;5.112;2023-10-31T09:59:11;13.80;99.90
49829;DHT22;35723;51.194;5.112;2023-10-31T10:01:39;13.80;99.90
49829;DHT22;35723;51.194;5.112;2023-10-31T10:04:05;13.80;99.90
49829;DHT22;35723;51.194;5.112;2023-10-31T10:06:31;13.80;99.90
49829;DHT22;35723;51.194;5.112;2023-10-31T10:08:57;13.90;99.90
49829;DHT22;35723;51.194;5.112;2023-10-31T10:11:23;13.80;99.90
49829;DHT22;35723;51.194;5.112;2023-10-31T10:13:51;13.80;99.90
49829;DHT22;35723;51.194;5.112;2023-10-31T10:16:31;13.80;99.90
49829;DHT22;35723;51.194;5.112;2023-10-31T10:18:56;13.80;99.90
49829;DHT22;35723;51.194;5.112;2023-10-31T10:21:22;13.80;99.90
49829;DHT22;35723;51.194;5.112;2023-10-31T10:23:48;13.80;99.90
49829;DHT22;35723;51.194;5.112;2023-10-31T10:26:17;13.90;99.90
49829;DHT22;35723;51.194;5.112;2023-10-31T10:28:47;13.90;99.90
49829;DHT22;35723;51.194;5.112;2023-10-31T10:31:14;13.90;99.90
49829;DHT22;35723;51.194;5.112;2023-10-31T10:33:40;14.00;99.90
49829;DHT22;35723;51.194;5.112;2023-10-31T10:36:08;14.10;99.90
49829;DHT22;35723;51.194;5.112;2023-10-31T10:38:35;14.10;99.90
49829;DHT22;35723;51.194;5.112;2023-10-31T10:41:03;14.10;99.90
49829;DHT22;35723;51.194;5.112;2023-10-31T10:43:34;14.20;99.90
49829;DHT22;35723;51.194;5.112;2023-10-31T10:46:04;14.30;99.90
49829;DHT22;35723;51.194;5.112;2023-10-31T10:48:32;14.40;99.90
49829;DHT22;35723;51.194;5.112;2023-10-31T10:51:06;14.40;99.90
49829;DHT22;35723;51.194;5.112;2023-10-31T10:53:49;14.40;99.90
49829;DHT22;35723;51.194;5.112;2023-10-31T10:56:35;14.40;99.90
49829;DHT22;35723;51.194;5.112;2023-10-31T10:59:08;14.50;99.90
49829;DHT22;35723;51.194;5.112;2023-10-31T11:01:38;14.50;99.90
49829;DHT22;35723;51.194;5.112;2023-10-31T11:04:05;14.60;99.90
49829;DHT22;35723;51.194;5.112;2023-10-31T11:06:32;14.60;99.90
49829;DHT22;35723;51.194;5.112;2023-10-31T11:08:58;14.60;99.90
49829;DHT22;35723;51.194;5.112;2023-10-31T11:11:25;14.60;99.90
49829;DHT22;35723;51.194;5.112;2023-10-31T11:13:52;14.60;99.90
49829;DHT22;35723;51.194;5.112;2023-10-31T11:17:00;14.60;99.90
49829;DHT22;35723;51.194;5.112;2023-10-31T11:19:26;14.70;99.90
49829;DHT22;35723;51.194;5.112;2023-10-31T11:21:59;14.70;99.90
49829;DHT22;35723;51.194;5.112;2023-10-31T11:24:32;14.80;99.90
49829;DHT22;35723;51.194;5.112;2023-10-31T11:27:00;14.80;99.90
49829;DHT22;35723;51.194;5.112;2023-10-31T11:29:26;14.80;99.90
49829;DHT22;35723;51.194;5.112;2023-10-31T11:31:54;14.80;99.90
49829;DHT22;35723;51.194;5.112;2023-10-31T11:34:19;14.90;99.90
49829;DHT22;35723;51.194;5.112;2023-10-31T11:36:46;14.80;99.90
49829;DHT22;35723;51.194;5.112;2023-10-31T11:39:18;14.90;99.90
49829;DHT22;35723;51.194;5.112;2023-10-31T11:41:48;14.80;99.90
49829;DHT22;35723;51.194;5.112;2023-10-31T11:44:15;14.80;99.90
49829;DHT22;35723;51.194;5.112;2023-10-31T11:46:41;14.70;99.90
49829;DHT22;35723;51.194;5.112;2023-10-31T11:49:07;14.80;99.90
49829;DHT22;35723;51.194;5.112;2023-10-31T11:51:33;14.90;99.90
49829;DHT22;35723;51.194;5.112;2023-10-31T11:54:00;14.90;99.90
49829;DHT22;35723;51.194;5.112;2023-10-31T11:56:27;14.90;99.90
49829;DHT22;35723;51.194;5.112;2023-10-31T11:59:02;14.90;99.90
49829;DHT22;35723;51.194;5.112;2023-10-31T12:01:28;14.90;99.90
49829;DHT22;35723;51.194;5.112;2023-10-31T12:03:54;14.90;99.90
49829;DHT22;35723;51.194;5.112;2023-10-31T12:06:20;15.10;99.90
49829;DHT22;35723;51.194;5.112;2023-10-31T12:08:47;15.10;99.90
49829;DHT22;35723;51.194;5.112;2023-10-31T12:11:16;15.00;99.90
49829;DHT22;35723;51.194;5.112;2023-10-31T12:16:24;15.00;99.90
49829;DHT22;35723;51.194;5.112;2023-10-31T12:18:59;13.80;99.90
49829;DHT22;35723;51.194;5.112;2023-10-31T12:21:54;13.60;99.90
49829;DHT22;35723;51.194;5.112;2023-10-31T12:24:21;13.80;99.90
49829;DHT22;35723;51.194;5.112;2023-10-31T12:26:47;14.00;99.90
49829;DHT22;35723;51.194;5.112;2023-10-31T12:29:14;14.10;99.90
49829;DHT22;35723;51.194;5.112;2023-10-31T12:31:51;14.30;99.90
49829;DHT22;35723;51.194;5.112;2023-10-31T12:34:22;14.50;99.90
49829;DHT22;35723;51.194;5.112;2023-10-31T12:36:53;14.60;99.90
49829;DHT22;35723;51.194;5.112;2023-10-31T12:39:22;14.70;99.90
49829;DHT22;35723;51.194;5.112;2023-10-31T12:41:49;14.70;99.90
49829;DHT22;35723;51.194;5.112;2023-10-31T12:44:20;14.80;99.90
49829;DHT22;35723;51.194;5.112;2023-10-31T12:46:48;15.00;99.90
49829;DHT22;35723;51.194;5.112;2023-10-31T12:49:18;15.00;99.90
49829;DHT22;35723;51.194;5.112;2023-10-31T12:52:01;15.00;99.90
49829;DHT22;35723;51.194;5.112;2023-10-31T12:54:37;15.00;99.90
49829;DHT22;35723;51.194;5.112;2023-10-31T12:57:03;15.00;99.90
49829;DHT22;35723;51.194;5.112;2023-10-31T12:59:31;15.10;99.90
49829;DHT22;35723;51.194;5.112;2023-10-31T13:01:56;15.20;99.90
49829;DHT22;35723;51.194;5.112;2023-10-31T13:04:26;15.20;99.90
49829;DHT22;35723;51.194;5.112;2023-10-31T13:07:26;15.10;99.90
49829;DHT22;35723;51.194;5.112;2023-10-31T13:09:52;15.20;99.90
49829;DHT22;35723;51.194;5.112;2023-10-31T13:12:17;15.10;99.90
49829;DHT22;35723;51.194;5.112;2023-10-31T13:14:43;15.10;99.90
49829;DHT22;35723;51.194;5.112;2023-10-31T13:17:09;15.10;99.90
49829;DHT22;35723;51.194;5.112;2023-10-31T13:19:34;15.10;99.90
49829;DHT22;35723;51.194;5.112;2023-10-31T13:22:00;15.10;99.90
49829;DHT22;35723;51.194;5.112;2023-10-31T13:24:26;15.10;99.90
49829;DHT22;35723;51.194;5.112;2023-10-31T13:26:52;14.90;99.90
49829;DHT22;35723;51.194;5.112;2023-10-31T13:29:19;14.90;99.90
49829;DHT22;35723;51.194;5.112;2023-10-31T13:31:45;15.00;99.90
49829;DHT22;35723;51.194;5.112;2023-10-31T13:34:10;14.90;99.90
49829;DHT22;35723;51.194;5.112;2023-10-31T13:36:36;15.00;99.90
49829;DHT22;35723;51.194;5.112;2023-10-31T13:39:02;15.00;99.90
49829;DHT22;35723;51.194;5.112;2023-10-31T13:41:28;15.00;99.90
49829;DHT22;35723;51.194;5.112;2023-10-31T13:43:54;15.00;99.90
49829;DHT22;35723;51.194;5.112;2023-10-31T13:46:19;15.00;99.90
49829;DHT22;35723;51.194;5.112;2023-10-31T13:48:45;15.00;99.90
49829;DHT22;35723;51.194;5.112;2023-10-31T13:51:12;15.00;99.90
49829;DHT22;35723;51.194;5.112;2023-10-31T13:53:37;15.00;99.90
49829;DHT22;35723;51.194;5.112;2023-10-31T13:56:03;15.00;99.90
49829;DHT22;35723;51.194;5.112;2023-10-31T13:58:29;14.90;99.90
49829;DHT22;35723;51.194;5.112;2023-10-31T14:00:54;14.90;99.90
49829;DHT22;35723;51.194;5.112;2023-10-31T14:03:20;14.90;99.90
49829;DHT22;35723;51.194;5.112;2023-10-31T14:05:46;14.80;99.90
49829;DHT22;35723;51.194;5.112;2023-10-31T14:08:12;14.80;99.90
49829;DHT22;35723;51.194;5.112;2023-10-31T14:10:38;14.80;99.90
49829;DHT22;35723;51.194;5.112;2023-10-31T14:13:05;14.80;99.90
49829;DHT22;35723;51.194;5.112;2023-10-31T14:15:30;14.80;99.90
49829;DHT22;35723;51.194;5.112;2023-10-31T14:17:57;14.80;99.90
49829;DHT22;35723;51.194;5.112;2023-10-31T14:20:23;14.80;99.90
49829;DHT22;35723;51.194;5.112;2023-10-31T14:22:49;14.80;99.90
49829;DHT22;35723;51.194;5.112;2023-10-31T14:25:15;14.70;99.90
49829;DHT22;35723;51.194;5.112;2023-10-31T14:27:42;14.70;99.90
49829;DHT22;35723;51.194;5.112;2023-10-31T14:30:09;14.70;99.90
49829;DHT22;35723;51.194;5.112;2023-10-31T14:32:35;14.50;99.90
49829;DHT22;35723;51.194;5.112;2023-10-31T14:35:01;14.50;99.90
49829;DHT22;35723;51.194;5.112;2023-10-31T14:37:26;14.50;99.90
49829;DHT22;35723;51.194;5.112;2023-10-31T14:39:53;14.50;99.90
49829;DHT22;35723;51.194;5.112;2023-10-31T14:42:19;14.60;99.90
49829;DHT22;35723;51.194;5.112;2023-10-31T14:44:46;14.50;99.90
49829;DHT22;35723;51.194;5.112;2023-10-31T14:47:12;14.50;99.90
49829;DHT22;35723;51.194;5.112;2023-10-31T14:49:37;14.60;99.90
49829;DHT22;35723;51.194;5.112;2023-10-31T14:52:03;14.60;99.90
49829;DHT22;35723;51.194;5.112;2023-10-31T14:54:30;14.60;99.90
49829;DHT22;35723;51.194;5.112;2023-10-31T14:56:57;14.70;99.90
49829;DHT22;35723;51.194;5.112;2023-10-31T14:59:22;14.60;99.90
49829;DHT22;35723;51.194;5.112;2023-10-31T15:01:48;14.60;99.90
49829;DHT22;35723;51.194;5.112;2023-10-31T15:04:14;14.60;99.90
49829;DHT22;35723;51.194;5.112;2023-10-31T15:06:41;14.70;99.90
49829;DHT22;35723;51.194;5.112;2023-10-31T15:09:09;14.70;99.90
49829;DHT22;35723;51.194;5.112;2023-10-31T15:11:35;14.70;99.90
49829;DHT22;35723;51.194;5.112;2023-10-31T15:14:01;14.70;99.90
49829;DHT22;35723;51.194;5.112;2023-10-31T15:16:27;14.60;99.90
49829;DHT22;35723;51.194;5.112;2023-10-31T15:18:53;14.70;99.90
49829;DHT22;35723;51.194;5.112;2023-10-31T15:21:18;14.70;99.90
49829;DHT22;35723;51.194;5.112;2023-10-31T15:23:44;14.60;99.90
49829;DHT22;35723;51.194;5.112;2023-10-31T15:26:09;14.70;99.90
49829;DHT22;35723;51.194;5.112;2023-10-31T15:28:42;14.70;99.90